createdAt,value
2019-03-01T00:00:44.047Z,0.5
2019-03-01T00:01:34.122Z,0.6
2019-03-01T00:02:23.897Z,0.6
2019-03-01T00:03:14.234Z,0.6
2019-03-01T00:04:04.014Z,0.5
2019-03-01T00:04:54.351Z,0.5
2019-03-01T00:05:44.395Z,0.5
2019-03-01T00:06:34.469Z,0.5
2019-03-01T00:07:24.514Z,0.5
2019-03-01T00:08:14.297Z,0.5
2019-03-01T00:09:04.624Z,0.5
2019-03-01T00:09:54.682Z,0.5
2019-03-01T00:10:44.469Z,0.5
2019-03-01T00:11:34.531Z,0.5
2019-03-01T00:12:24.861Z,0.5
2019-03-01T00:13:14.922Z,0.5
2019-03-01T00:14:05.019Z,0.5
2019-03-01T00:14:54.761Z,0.5
2019-03-01T00:15:44.879Z,0.5
2019-03-01T00:16:35.167Z,0.5
2019-03-01T00:17:24.659Z,0.5
2019-03-01T00:18:15.263Z,0.5
2019-03-01T00:19:05.041Z,0.5
2019-03-01T00:19:55.400Z,0.5
2019-03-01T00:20:45.130Z,0.5
2019-03-01T00:21:34.651Z,0.5
2019-03-01T00:22:25.538Z,0.5
2019-03-01T00:23:15.582Z,0.5
2019-03-01T00:24:05.368Z,0.6
2019-03-01T00:24:55.457Z,0.5
2019-03-01T00:25:45.492Z,0.5
2019-03-01T00:26:35.859Z,0.5
2019-03-01T00:27:25.865Z,0.5
2019-03-01T00:28:15.932Z,0.5
2019-03-01T00:29:05.710Z,0.5
2019-03-01T00:29:55.802Z,0.5
2019-03-01T00:30:46.102Z,0.5
2019-03-01T00:31:36.167Z,0.5
2019-03-01T00:32:25.999Z,0.5
2019-03-01T00:33:16.270Z,0.5
2019-03-01T00:34:06.339Z,0.5
2019-03-01T00:34:56.389Z,0.5
2019-03-01T00:35:46.454Z,0.5
2019-03-01T00:36:36.542Z,0.5
2019-03-01T00:37:26.294Z,0.5
2019-03-01T00:38:16.614Z,0.5
2019-03-01T00:39:06.455Z,0.5
2019-03-01T00:39:56.467Z,0.5
2019-03-01T00:40:46.521Z,0.5
2019-03-01T00:41:36.866Z,0.5
2019-03-01T00:42:26.924Z,0.5
2019-03-01T00:43:16.979Z,0.5
2019-03-01T00:44:06.774Z,0.5
2019-03-01T00:44:57.096Z,0.5
2019-03-01T00:45:46.882Z,0.5
2019-03-01T00:46:36.938Z,0.5
2019-03-01T00:47:26.723Z,0.5
2019-03-01T00:48:17.041Z,0.5
2019-03-01T00:49:07.373Z,0.5
2019-03-01T00:49:57.157Z,0.5
2019-03-01T00:50:46.998Z,0.5
2019-03-01T00:51:37.273Z,0.5
2019-03-01T00:52:27.604Z,0.5
2019-03-01T00:53:17.693Z,0.5
2019-03-01T00:54:07.740Z,0.5
2019-03-01T00:54:57.523Z,0.5
2019-03-01T00:55:47.851Z,0.5
2019-03-01T00:56:37.350Z,0.5
2019-03-01T00:57:27.948Z,0.5
2019-03-01T00:58:17.996Z,0.5
2019-03-01T00:59:07.815Z,0.5
2019-03-01T00:59:57.312Z,0.5
2019-03-01T01:00:47.918Z,0.6
2019-03-01T01:01:38.246Z,0.6
2019-03-01T01:02:28.349Z,0.5
2019-03-01T01:03:18.413Z,0.6
2019-03-01T01:04:08.416Z,0.6
2019-03-01T01:04:58.478Z,0.6
2019-03-01T01:05:48.261Z,0.6
2019-03-01T01:06:38.318Z,0.6
2019-03-01T01:07:28.652Z,0.6
2019-03-01T01:08:18.698Z,0.6
2019-03-01T01:09:08.504Z,0.6
2019-03-01T01:09:58.872Z,0.6
2019-03-01T01:10:48.884Z,0.6
2019-03-01T01:11:38.672Z,0.6
2019-03-01T01:12:28.731Z,0.6
2019-03-01T01:13:18.825Z,0.6
2019-03-01T01:14:08.564Z,0.6
2019-03-01T01:14:59.174Z,0.6
2019-03-01T01:15:49.242Z,0.6
2019-03-01T01:16:39.032Z,0.6
2019-03-01T01:17:29.337Z,0.7
2019-03-01T01:18:19.400Z,0.7
2019-03-01T01:19:09.174Z,0.7
2019-03-01T01:19:59.019Z,0.8
2019-03-01T01:20:49.295Z,0.7
2019-03-01T01:21:39.351Z,0.8
2019-03-01T01:22:29.431Z,0.8
2019-03-01T01:23:19.464Z,0.8
2019-03-01T01:24:09.238Z,0.8
2019-03-01T01:24:59.600Z,0.8
2019-03-01T01:25:49.995Z,0.8
2019-03-01T01:26:39.981Z,0.8
2019-03-01T01:27:29.211Z,0.8
2019-03-01T01:28:20.154Z,0.8
2019-03-01T01:29:10.161Z,0.8
2019-03-01T01:30:00.312Z,0.8
2019-03-01T01:30:50.267Z,0.9
2019-03-01T01:31:40.077Z,0.8
2019-03-01T01:32:30.387Z,0.9
2019-03-01T01:33:20.472Z,0.9
2019-03-01T01:34:10.231Z,0.9
2019-03-01T01:35:00.343Z,0.9
2019-03-01T01:35:50.604Z,0.9
2019-03-01T01:36:40.663Z,0.9
2019-03-01T01:37:30.728Z,0.9
2019-03-01T01:38:20.248Z,0.9
2019-03-01T01:39:10.850Z,0.9
2019-03-01T01:40:00.916Z,0.9
2019-03-01T01:40:50.695Z,0.9
2019-03-01T01:41:41.056Z,1
2019-03-01T01:42:30.573Z,1
2019-03-01T01:43:21.125Z,1
2019-03-01T01:44:10.665Z,1
2019-03-01T01:45:01.348Z,1.1
2019-03-01T01:45:53.269Z,1.1
2019-03-01T01:46:41.108Z,1.1
2019-03-01T01:47:30.900Z,1.1
2019-03-01T01:48:21.483Z,1.1
2019-03-01T01:49:11.535Z,1.1
2019-03-01T01:50:01.198Z,1.1
2019-03-01T01:50:51.653Z,1.1
2019-03-01T01:51:41.240Z,1.1
2019-03-01T01:52:31.525Z,1.1
2019-03-01T01:53:21.865Z,1.1
2019-03-01T01:54:11.893Z,1.1
2019-03-01T01:55:01.990Z,1.1
2019-03-01T01:55:52.015Z,1.1
2019-03-01T01:56:42.065Z,1.1
2019-03-01T01:57:32.164Z,1.1
2019-03-01T01:58:22.177Z,1.1
2019-03-01T01:59:11.694Z,1.1
2019-03-01T02:00:02.318Z,1.2
2019-03-01T02:00:52.359Z,1.2
2019-03-01T02:01:42.403Z,1.2
2019-03-01T02:02:31.642Z,1.2
2019-03-01T02:03:22.240Z,1.2
2019-03-01T02:04:12.568Z,1.3
2019-03-01T02:05:02.392Z,1.2
2019-03-01T02:05:52.425Z,1.2
2019-03-01T02:06:42.756Z,1.2
2019-03-01T02:07:32.539Z,1.3
2019-03-01T02:08:22.878Z,1.2
2019-03-01T02:09:12.652Z,1.3
2019-03-01T02:10:02.726Z,1.3
2019-03-01T02:10:52.776Z,1.3
2019-03-01T02:11:43.097Z,1.3
2019-03-01T02:12:33.186Z,1.3
2019-03-01T02:13:22.957Z,1.3
2019-03-01T02:14:13.007Z,1.3
2019-03-01T02:15:03.066Z,1.3
2019-03-01T02:15:53.381Z,1.3
2019-03-01T02:16:43.458Z,1.3
2019-03-01T02:17:33.511Z,1.3
2019-03-01T02:18:23.289Z,1.3
2019-03-01T02:19:13.331Z,1.3
2019-03-01T02:20:03.129Z,1.3
2019-03-01T02:20:53.737Z,1.4
2019-03-01T02:21:43.521Z,1.3
2019-03-01T02:22:33.851Z,1.4
2019-03-01T02:23:23.634Z,1.3
2019-03-01T02:24:13.688Z,1.4
2019-03-01T02:25:03.751Z,1.3
2019-03-01T02:25:54.133Z,1.4
2019-03-01T02:26:44.146Z,1.4
2019-03-01T02:27:34.195Z,1.4
2019-03-01T02:28:24.259Z,1.4
2019-03-01T02:29:14.311Z,1.4
2019-03-01T02:30:04.151Z,1.4
2019-03-01T02:30:54.452Z,1.4
2019-03-01T02:31:44.505Z,1.4
2019-03-01T02:32:34.543Z,1.4
2019-03-01T02:33:24.143Z,1.4
2019-03-01T02:34:14.667Z,1.4
2019-03-01T02:35:04.743Z,1.4
2019-03-01T02:35:54.792Z,1.4
2019-03-01T02:36:44.586Z,1.4
2019-03-01T02:37:34.357Z,1.4
2019-03-01T02:38:24.956Z,1.4
2019-03-01T02:39:14.767Z,1.4
2019-03-01T02:40:04.806Z,1.4
2019-03-01T02:40:54.861Z,1.4
2019-03-01T02:41:45.180Z,1.4
2019-03-01T02:42:34.977Z,1.4
2019-03-01T02:43:25.318Z,1.4
2019-03-01T02:44:14.835Z,1.4
2019-03-01T02:45:05.143Z,1.4
2019-03-01T02:45:54.938Z,1.4
2019-03-01T02:46:44.983Z,1.3
2019-03-01T02:47:35.589Z,1.4
2019-03-01T02:48:25.652Z,1.3
2019-03-01T02:49:15.448Z,1.4
2019-03-01T02:50:05.777Z,1.3
2019-03-01T02:50:55.842Z,1.3
2019-03-01T02:51:45.436Z,1.3
2019-03-01T02:52:35.968Z,1.4
2019-03-01T02:53:26.000Z,1.3
2019-03-01T02:54:15.792Z,1.3
2019-03-01T02:55:05.837Z,1.3
2019-03-01T02:55:56.169Z,1.3
2019-03-01T02:56:46.227Z,1.3
2019-03-01T02:57:35.499Z,1.3
2019-03-01T02:58:26.062Z,1.3
2019-03-01T02:59:16.142Z,1.3
2019-03-01T03:00:06.191Z,1.3
2019-03-01T03:00:56.238Z,1.3
2019-03-01T03:01:46.308Z,1.3
2019-03-01T03:02:36.659Z,1.3
2019-03-01T03:03:26.709Z,1.3
2019-03-01T03:04:16.469Z,1.3
2019-03-01T03:07:49.162Z,1.2
2019-03-01T03:08:39.012Z,1.2
2019-03-01T03:09:29.041Z,1.2
2019-03-01T03:10:19.066Z,1.2
2019-03-01T03:11:09.161Z,1.2
2019-03-01T03:11:59.160Z,1.2
2019-03-01T03:12:49.510Z,1.2
2019-03-01T03:13:39.554Z,1.2
2019-03-01T03:14:29.610Z,1.2
2019-03-01T03:15:19.418Z,1.2
2019-03-01T03:16:09.460Z,1.2
2019-03-01T03:16:59.788Z,1.1
2019-03-01T03:17:49.587Z,1.2
2019-03-01T03:18:39.887Z,1.1
2019-03-01T03:19:29.670Z,1.2
2019-03-01T03:20:19.762Z,1.2
2019-03-01T03:21:10.083Z,1.2
2019-03-01T03:22:00.127Z,1.2
2019-03-01T03:22:50.172Z,1.1
2019-03-01T03:23:40.016Z,1.1
2019-03-01T03:24:30.082Z,1.1
2019-03-01T03:25:20.368Z,1.1
2019-03-01T03:26:10.440Z,1.1
2019-03-01T03:27:00.462Z,1.1
2019-03-01T03:27:50.543Z,1.1
2019-03-01T03:28:40.639Z,1.1
2019-03-01T03:29:30.710Z,1.1
2019-03-01T03:30:20.881Z,1.1
2019-03-01T03:31:10.783Z,1.1
2019-03-01T03:32:00.908Z,1.1
2019-03-01T03:32:50.940Z,1.1
2019-03-01T03:33:40.998Z,1.1
2019-03-01T03:34:31.083Z,1.1
2019-03-01T03:35:21.120Z,1.1
2019-03-01T03:36:10.830Z,1.1
2019-03-01T03:37:00.916Z,1.1
2019-03-01T03:37:51.229Z,1.1
2019-03-01T03:38:40.979Z,1.1
2019-03-01T03:39:31.335Z,1.1
2019-03-01T03:40:21.125Z,1.1
2019-03-01T03:41:11.185Z,1.1
2019-03-01T03:42:01.228Z,1.1
2019-03-01T03:42:51.295Z,1
2019-03-01T03:43:41.062Z,1.1
2019-03-01T03:44:31.665Z,1
2019-03-01T03:45:21.258Z,1
2019-03-01T03:46:11.786Z,1
2019-03-01T03:47:01.582Z,1
2019-03-01T03:47:51.440Z,1
2019-03-01T03:48:41.979Z,1
2019-03-01T03:49:32.015Z,1
2019-03-01T03:50:22.071Z,1
2019-03-01T03:51:12.202Z,1
2019-03-01T03:52:01.662Z,1
2019-03-01T03:52:52.316Z,1
2019-03-01T03:53:42.317Z,1
2019-03-01T03:54:32.359Z,1
2019-03-01T03:55:22.192Z,1
2019-03-01T03:56:12.462Z,1
2019-03-01T03:57:02.015Z,0.9
2019-03-01T03:57:52.599Z,0.9
2019-03-01T03:58:42.666Z,1
2019-03-01T03:59:32.708Z,0.9
2019-03-01T04:00:22.789Z,0.9
2019-03-01T04:01:12.816Z,0.9
2019-03-01T04:02:02.620Z,0.9
2019-03-01T04:02:52.949Z,0.9
2019-03-01T04:03:42.721Z,0.9
2019-03-01T04:04:33.044Z,0.9
2019-03-01T04:05:23.099Z,0.9
2019-03-01T04:06:13.161Z,0.9
2019-03-01T04:07:02.687Z,0.9
2019-03-01T04:07:53.019Z,0.9
2019-03-01T04:08:43.057Z,0.9
2019-03-01T04:09:33.413Z,0.9
2019-03-01T04:10:23.457Z,0.9
2019-03-01T04:11:13.493Z,0.9
2019-03-01T04:12:03.287Z,0.9
2019-03-01T04:12:53.642Z,0.9
2019-03-01T04:13:43.713Z,0.9
2019-03-01T04:14:33.745Z,0.9
2019-03-01T04:15:23.516Z,0.9
2019-03-01T04:16:13.843Z,0.9
2019-03-01T04:17:03.905Z,0.9
2019-03-01T04:17:53.767Z,0.9
2019-03-01T04:18:44.023Z,0.9
2019-03-01T04:19:33.528Z,0.9
2019-03-01T04:20:24.125Z,0.9
2019-03-01T04:21:13.630Z,0.9
2019-03-01T04:22:03.983Z,0.9
2019-03-01T04:22:54.030Z,0.9
2019-03-01T04:23:44.356Z,0.9
2019-03-01T04:24:34.160Z,0.9
2019-03-01T04:25:24.615Z,0.8
2019-03-01T04:26:14.525Z,0.9
2019-03-01T04:27:04.308Z,0.9
2019-03-01T04:27:54.770Z,0.9
2019-03-01T04:28:44.705Z,0.9
2019-03-01T04:29:34.754Z,0.9
2019-03-01T04:30:24.824Z,0.9
2019-03-01T04:31:14.582Z,0.9
2019-03-01T04:32:04.914Z,0.9
2019-03-01T04:32:55.017Z,0.9
2019-03-01T04:33:45.030Z,0.9
2019-03-01T04:34:35.104Z,0.9
2019-03-01T04:35:25.172Z,0.9
2019-03-01T04:36:14.936Z,0.9
2019-03-01T04:37:05.291Z,0.9
2019-03-01T04:37:55.359Z,0.9
2019-03-01T04:38:45.376Z,0.9
2019-03-01T04:39:35.430Z,0.9
2019-03-01T04:40:25.249Z,0.9
2019-03-01T04:41:15.562Z,0.9
2019-03-01T04:42:05.351Z,0.9
2019-03-01T04:42:55.676Z,0.9
2019-03-01T04:43:45.716Z,0.9
2019-03-01T04:44:35.773Z,0.9
2019-03-01T04:45:25.840Z,0.9
2019-03-01T04:46:15.875Z,0.9
2019-03-01T04:47:05.951Z,0.9
2019-03-01T04:47:56.003Z,0.9
2019-03-01T04:48:46.056Z,0.9
2019-03-01T04:49:36.110Z,0.9
2019-03-01T04:50:26.180Z,0.9
2019-03-01T04:51:16.238Z,0.9
2019-03-01T04:52:06.301Z,0.9
2019-03-01T04:52:56.360Z,0.9
2019-03-01T04:53:46.141Z,0.9
2019-03-01T04:54:36.456Z,0.9
2019-03-01T04:55:26.528Z,0.9
2019-03-01T04:56:16.590Z,0.9
2019-03-01T04:57:06.632Z,0.9
2019-03-01T04:57:56.703Z,0.9
2019-03-01T04:58:46.485Z,0.9
2019-03-01T04:59:36.530Z,0.9
2019-03-01T05:00:26.873Z,0.9
2019-03-01T05:01:16.653Z,0.9
2019-03-01T05:02:06.990Z,0.9
2019-03-01T05:02:57.042Z,0.9
2019-03-01T05:03:47.110Z,0.9
2019-03-01T05:04:36.877Z,0.9
2019-03-01T05:05:26.972Z,0.9
2019-03-01T05:06:17.259Z,0.9
2019-03-01T05:07:07.050Z,0.9
2019-03-01T05:07:57.399Z,0.9
2019-03-01T05:08:46.880Z,0.9
2019-03-01T05:09:37.228Z,0.9
2019-03-01T05:10:27.280Z,0.9
2019-03-01T05:11:17.601Z,0.9
2019-03-01T05:12:07.404Z,0.9
2019-03-01T05:12:57.771Z,0.9
2019-03-01T05:13:47.786Z,0.9
2019-03-01T05:14:37.827Z,0.9
2019-03-01T05:15:27.925Z,0.9
2019-03-01T05:16:17.664Z,0.9
2019-03-01T05:17:08.037Z,0.9
2019-03-01T05:17:57.796Z,0.9
2019-03-01T05:18:47.843Z,0.9
2019-03-01T05:19:38.169Z,0.9
2019-03-01T05:20:31.186Z,0.9
2019-03-01T05:21:18.294Z,0.9
2019-03-01T05:22:08.076Z,0.9
2019-03-01T05:22:58.429Z,0.9
2019-03-01T05:23:48.477Z,0.9
2019-03-01T05:24:38.531Z,0.9
2019-03-01T05:25:28.324Z,0.9
2019-03-01T05:26:18.641Z,0.9
2019-03-01T05:27:08.706Z,0.9
2019-03-01T05:27:58.769Z,1
2019-03-01T05:28:48.809Z,1
2019-03-01T05:29:38.873Z,1
2019-03-01T05:30:28.941Z,1
2019-03-01T05:31:18.981Z,1
2019-03-01T05:32:09.045Z,1.1
2019-03-01T05:32:58.831Z,1.1
2019-03-01T05:33:49.178Z,1.1
2019-03-01T05:34:39.221Z,1.1
2019-03-01T05:35:28.996Z,1.1
2019-03-01T05:36:19.331Z,1.1
2019-03-01T05:37:09.379Z,1.1
2019-03-01T05:37:59.161Z,1.1
2019-03-01T05:38:48.957Z,1.1
2019-03-01T05:39:39.553Z,1.2
2019-03-01T05:40:29.640Z,1.2
2019-03-01T05:41:19.385Z,1.3
2019-03-01T05:42:09.763Z,1.3
2019-03-01T05:42:59.572Z,1.3
2019-03-01T05:43:49.840Z,1.4
2019-03-01T05:44:39.691Z,1.4
2019-03-01T05:45:29.690Z,1.4
2019-03-01T05:46:20.024Z,1.4
2019-03-01T05:47:09.798Z,1.6
2019-03-01T05:47:59.854Z,1.6
2019-03-01T05:48:50.198Z,1.6
2019-03-01T05:49:40.231Z,1.7
2019-03-01T05:50:30.306Z,1.8
2019-03-01T05:51:20.361Z,1.8
2019-03-01T05:52:10.436Z,1.9
2019-03-01T05:53:00.485Z,1.9
2019-03-01T05:53:50.513Z,2
2019-03-01T05:54:40.581Z,2.1
2019-03-01T05:55:30.369Z,2.2
2019-03-01T05:56:20.693Z,2.3
2019-03-01T05:57:10.749Z,2.3
2019-03-01T05:58:00.548Z,2.4
2019-03-01T05:58:50.874Z,2.6
2019-03-01T05:59:40.644Z,2.6
2019-03-01T06:00:30.973Z,2.8
2019-03-01T06:01:21.041Z,2.9
2019-03-01T06:02:10.855Z,3
2019-03-01T06:03:01.160Z,3.1
2019-03-01T06:03:51.215Z,3.3
2019-03-01T06:05:48.710Z,3.6
2019-03-01T06:06:39.048Z,3.8
2019-03-01T06:07:29.320Z,3.9
2019-03-01T06:08:18.905Z,4.1
2019-03-01T06:09:08.937Z,4.2
2019-03-01T06:09:59.115Z,4.4
2019-03-01T06:10:50.697Z,4.6
2019-03-01T06:11:38.838Z,4.8
2019-03-01T06:12:29.447Z,4.9
2019-03-01T06:13:19.213Z,5.1
2019-03-01T06:14:09.558Z,5.3
2019-03-01T06:14:59.616Z,5.4
2019-03-01T06:15:49.707Z,5.6
2019-03-01T06:16:41.409Z,5.9
2019-03-01T06:17:29.227Z,6.1
2019-03-01T06:18:19.839Z,6.3
2019-03-01T06:19:09.900Z,6.4
2019-03-01T06:19:59.957Z,6.6
2019-03-01T06:20:49.750Z,6.9
2019-03-01T06:21:40.055Z,7.1
2019-03-01T06:22:30.127Z,7.3
2019-03-01T06:23:20.220Z,7.5
2019-03-01T06:24:10.243Z,7.8
2019-03-01T06:25:00.017Z,8
2019-03-01T06:25:50.106Z,8.3
2019-03-01T06:26:40.159Z,8.4
2019-03-01T06:27:30.250Z,8.8
2019-03-01T06:28:20.273Z,9
2019-03-01T06:29:10.346Z,9.3
2019-03-01T06:30:00.806Z,9.6
2019-03-01T06:30:53.598Z,9.9
2019-03-01T06:31:40.746Z,10.1
2019-03-01T06:32:30.822Z,10.4
2019-03-01T06:33:20.880Z,10.8
2019-03-01T06:34:10.928Z,11.1
2019-03-01T06:35:00.929Z,11.4
2019-03-01T06:35:50.502Z,11.7
2019-03-01T06:36:40.809Z,12
2019-03-01T06:37:30.899Z,12.3
2019-03-01T06:38:21.216Z,12.7
2019-03-01T06:39:11.001Z,13
2019-03-01T06:40:00.972Z,13.4
2019-03-01T06:40:51.401Z,13.8
2019-03-01T06:41:41.446Z,14.1
2019-03-01T06:42:31.496Z,14.4
2019-03-01T06:43:21.301Z,14.8
2019-03-01T06:44:11.051Z,15.2
2019-03-01T06:45:01.286Z,15.6
2019-03-01T06:45:51.178Z,15.9
2019-03-01T06:46:41.783Z,16.3
2019-03-01T06:47:31.853Z,16.7
2019-03-01T06:48:21.358Z,17.1
2019-03-01T06:49:11.691Z,17.4
2019-03-01T06:50:02.059Z,17.9
2019-03-01T06:50:51.798Z,18.3
2019-03-01T06:52:32.185Z,19.1
2019-03-01T06:53:21.972Z,19.5
2019-03-01T06:54:12.345Z,19.9
2019-03-01T06:55:02.081Z,20.3
2019-03-01T06:55:52.142Z,20.7
2019-03-01T06:56:42.217Z,21.1
2019-03-01T06:57:32.261Z,21.5
2019-03-01T06:58:22.647Z,13.4
2019-03-01T06:59:12.365Z,10.3
2019-03-01T07:00:02.729Z,35.9
2019-03-01T07:00:52.755Z,47.6
2019-03-01T07:01:42.545Z,47.7
2019-03-01T07:02:32.600Z,45.4
2019-03-01T07:03:22.664Z,43.7
2019-03-01T07:05:48.952Z,41
2019-03-01T07:06:39.026Z,40.4
2019-03-01T07:07:29.084Z,40.1
2019-03-01T07:08:18.854Z,39.9
2019-03-01T07:09:09.202Z,39.7
2019-03-01T07:09:59.243Z,39.4
2019-03-01T07:10:49.309Z,39.3
2019-03-01T07:11:39.084Z,39.1
2019-03-01T07:12:29.412Z,38.9
2019-03-01T07:13:19.457Z,38.8
2019-03-01T07:14:09.248Z,38.6
2019-03-01T07:14:59.576Z,38.4
2019-03-01T07:15:49.349Z,38.3
2019-03-01T07:16:39.691Z,38.2
2019-03-01T07:17:29.203Z,38.1
2019-03-01T07:18:19.862Z,37.9
2019-03-01T07:19:09.894Z,37.9
2019-03-01T07:19:59.982Z,37.8
2019-03-01T07:20:49.997Z,37.6
2019-03-01T07:21:39.761Z,37.6
2019-03-01T07:22:29.821Z,37.6
2019-03-01T07:23:19.879Z,37.6
2019-03-01T07:24:10.345Z,41.1
2019-03-01T07:25:00.342Z,43.4
2019-03-01T07:25:50.328Z,51.8
2019-03-01T07:26:40.096Z,53.4
2019-03-01T07:27:30.232Z,54.3
2019-03-01T07:28:20.224Z,56.8
2019-03-01T07:30:00.406Z,57.8
2019-03-01T07:30:50.676Z,57.6
2019-03-01T07:31:40.448Z,57.3
2019-03-01T07:32:30.773Z,57.1
2019-03-01T07:33:20.570Z,56.9
2019-03-01T07:34:10.618Z,56.6
2019-03-01T07:35:00.566Z,56.3
2019-03-01T07:35:51.002Z,56.1
2019-03-01T07:36:40.820Z,55.3
2019-03-01T07:37:31.122Z,53.7
2019-03-01T07:38:21.175Z,55.1
2019-03-01T07:39:11.228Z,55.4
2019-03-01T07:40:01.121Z,55.9
2019-03-01T07:40:51.092Z,57.8
2019-03-01T07:41:41.422Z,58.7
2019-03-01T07:42:31.251Z,58.7
2019-03-01T07:43:21.567Z,58.3
2019-03-01T07:44:11.578Z,57.8
2019-03-01T07:45:01.863Z,57.5
2019-03-01T07:45:51.687Z,57.4
2019-03-01T07:46:41.472Z,57.5
2019-03-01T07:47:31.866Z,57.6
2019-03-01T07:48:21.872Z,57.6
2019-03-01T07:49:17.799Z,57.7
2019-03-01T07:50:01.724Z,57.7
2019-03-01T07:50:57.152Z,57.6
2019-03-01T07:51:41.817Z,57.6
2019-03-01T07:52:32.162Z,57.6
2019-03-01T07:53:22.248Z,57.6
2019-03-01T07:54:18.755Z,57.4
2019-03-01T07:55:02.366Z,57.3
2019-03-01T07:55:52.134Z,57.2
2019-03-01T07:56:42.458Z,57.2
2019-03-01T07:57:32.917Z,57.1
2019-03-01T07:58:27.552Z,57.1
2019-03-01T07:59:12.348Z,57.1
2019-03-01T08:00:02.672Z,57.1
2019-03-01T08:00:55.799Z,56.9
2019-03-01T08:01:42.491Z,56.9
2019-03-01T08:02:32.291Z,56.8
2019-03-01T08:03:22.622Z,56.6
2019-03-01T08:04:12.971Z,56.6
2019-03-01T08:05:06.506Z,56.6
2019-03-01T08:05:53.077Z,56.6
2019-03-01T08:06:48.725Z,56.6
2019-03-01T08:07:33.189Z,56.8
2019-03-01T08:08:23.284Z,56.9
2019-03-01T08:09:13.306Z,57.1
2019-03-01T08:10:03.370Z,57.1
2019-03-01T08:11:00.292Z,57.2
2019-03-01T08:11:43.231Z,57.3
2019-03-01T08:12:33.554Z,57.5
2019-03-01T08:13:23.326Z,57.7
2019-03-01T08:14:13.736Z,57.8
2019-03-01T08:15:10.295Z,57.9
2019-03-01T08:15:53.771Z,58.1
2019-03-01T08:16:43.857Z,58.2
2019-03-01T08:17:33.900Z,58.3
2019-03-01T08:18:23.950Z,58.3
2019-03-01T08:19:23.896Z,58.4
2019-03-01T08:20:03.858Z,58.4
2019-03-01T08:20:53.841Z,58.5
2019-03-01T08:22:33.960Z,58.6
2019-03-01T08:23:24.039Z,58.7
2019-03-01T08:24:14.354Z,58.7
2019-03-01T08:25:04.139Z,58.7
2019-03-01T08:26:00.714Z,58.6
2019-03-01T08:26:44.545Z,58.6
2019-03-01T08:27:34.296Z,58.7
2019-03-01T08:28:24.745Z,58.7
2019-03-01T08:29:14.441Z,58.8
2019-03-01T08:30:12.163Z,58.8
2019-03-01T08:30:54.807Z,58.9
2019-03-01T08:31:44.870Z,58.9
2019-03-01T08:32:34.920Z,59
2019-03-01T08:33:24.700Z,59
2019-03-01T08:34:19.550Z,59
2019-03-01T08:35:07.490Z,59.1
2019-03-01T08:35:55.151Z,59.2
2019-03-01T08:36:44.982Z,59.4
2019-03-01T08:37:35.270Z,59.5
2019-03-01T08:38:30.323Z,59.5
2019-03-01T08:39:15.116Z,59.4
2019-03-01T08:40:05.164Z,59.4
2019-03-01T08:40:55.767Z,59.3
2019-03-01T08:41:44.989Z,59.2
2019-03-01T08:42:38.167Z,59.1
2019-03-01T08:43:25.382Z,59
2019-03-01T08:44:15.458Z,58.9
2019-03-01T08:45:05.241Z,58.9
2019-03-01T08:45:55.881Z,58.9
2019-03-01T08:46:47.959Z,59.1
2019-03-01T08:47:35.677Z,59.2
2019-03-01T08:48:26.019Z,59.1
2019-03-01T08:49:15.837Z,59
2019-03-01T08:50:05.866Z,58.8
2019-03-01T08:50:56.186Z,58.8
2019-03-01T08:51:46.246Z,59
2019-03-01T08:52:42.099Z,59.2
2019-03-01T08:53:26.369Z,59.5
2019-03-01T08:54:16.179Z,59.7
2019-03-01T08:55:06.192Z,59.9
2019-03-01T08:55:56.268Z,60.1
2019-03-01T08:56:52.869Z,60.2
2019-03-01T08:57:45.806Z,60.3
2019-03-01T08:58:26.434Z,60.4
2019-03-01T08:59:19.877Z,60.6
2019-03-01T09:00:06.819Z,60.7
2019-03-01T09:01:09.944Z,60.8
2019-03-01T09:01:47.401Z,61
2019-03-01T09:02:36.988Z,61
2019-03-01T09:03:27.041Z,61.1
2019-03-01T09:04:22.334Z,61.3
2019-03-01T09:05:11.283Z,61.4
2019-03-01T09:05:56.939Z,61.4
2019-03-01T09:06:47.063Z,61.5
2019-03-01T09:07:37.341Z,61.6
2019-03-01T09:08:27.840Z,61.8
2019-03-01T09:09:22.508Z,61.8
2019-03-01T09:10:07.525Z,61.9
2019-03-01T09:10:57.566Z,62
2019-03-01T09:11:47.629Z,62.1
2019-03-01T09:12:37.683Z,62.1
2019-03-01T09:13:27.750Z,62.2
2019-03-01T09:14:17.518Z,62.3
2019-03-01T09:15:09.370Z,62.3
2019-03-01T09:15:57.923Z,62.3
2019-03-01T09:16:47.697Z,62.4
2019-03-01T09:17:38.015Z,62.5
2019-03-01T09:18:27.790Z,62.5
2019-03-01T09:19:18.157Z,62.5
2019-03-01T09:20:07.922Z,62.6
2019-03-01T09:21:13.652Z,62.6
2019-03-01T09:21:52.089Z,62.7
2019-03-01T09:22:38.380Z,62.8
2019-03-01T09:23:28.922Z,62.7
2019-03-01T09:24:18.493Z,62.6
2019-03-01T09:25:10.269Z,62.5
2019-03-01T09:25:58.605Z,62.3
2019-03-01T09:26:51.508Z,62
2019-03-01T09:27:38.704Z,61.9
2019-03-01T09:28:28.495Z,61.9
2019-03-01T09:29:20.480Z,62.1
2019-03-01T09:30:08.897Z,62.2
2019-03-01T09:30:58.957Z,62.3
2019-03-01T09:31:54.209Z,62.4
2019-03-01T09:32:39.074Z,62.4
2019-03-01T09:33:28.834Z,62.5
2019-03-01T09:34:19.178Z,62.6
2019-03-01T09:35:09.732Z,62.6
2019-03-01T09:35:59.024Z,62.8
2019-03-01T09:36:55.715Z,62.8
2019-03-01T09:37:39.429Z,62.9
2019-03-01T09:38:29.187Z,63
2019-03-01T09:39:20.753Z,63.1
2019-03-01T09:40:09.616Z,63.1
2019-03-01T09:41:06.266Z,63.2
2019-03-01T09:41:49.126Z,63.3
2019-03-01T09:42:39.748Z,63.4
2019-03-01T09:43:29.856Z,63.4
2019-03-01T09:44:19.882Z,63.3
2019-03-01T09:45:14.850Z,62.9
2019-03-01T09:45:59.976Z,62.6
2019-03-01T09:46:50.026Z,62.6
2019-03-01T09:47:40.096Z,62.8
2019-03-01T09:48:30.210Z,62.9
2019-03-01T09:49:26.099Z,62.9
2019-03-01T09:50:09.981Z,62.9
2019-03-01T09:51:00.035Z,62.9
2019-03-01T09:51:51.513Z,62.7
2019-03-01T09:52:40.166Z,62.7
2019-03-01T09:53:35.741Z,62.8
2019-03-01T09:54:20.565Z,62.9
2019-03-01T09:55:10.326Z,63
2019-03-01T09:56:01.421Z,63.2
2019-03-01T09:56:50.731Z,63.3
2019-03-01T09:57:40.250Z,63.4
2019-03-01T09:58:30.846Z,63.4
2019-03-01T09:59:20.685Z,63.5
2019-03-01T10:00:10.948Z,63.6
2019-03-01T10:01:01.030Z,63.8
2019-03-01T10:01:51.067Z,63.8
2019-03-01T10:02:41.122Z,63.9
2019-03-01T10:03:30.900Z,63.9
2019-03-01T10:04:21.227Z,64
2019-03-01T10:06:59.775Z,64.3
2019-03-01T10:07:43.007Z,64.4
2019-03-01T10:08:33.345Z,64.4
2019-03-01T10:09:23.399Z,64.5
2019-03-01T12:06:48.686Z,69.9
2019-03-01T12:07:38.748Z,69.9
2019-03-01T12:08:28.523Z,70
2019-03-01T12:09:18.849Z,70
2019-03-01T12:10:08.651Z,70.1
2019-03-01T12:10:58.693Z,70.1
2019-03-01T12:11:49.018Z,70.1
2019-03-01T12:12:39.091Z,70.1
2019-03-01T12:13:29.146Z,70
2019-03-01T12:14:19.201Z,70.1
2019-03-01T12:15:09.255Z,70.1
2019-03-01T12:15:59.328Z,70.1
2019-03-01T12:16:49.110Z,70.1
2019-03-01T12:17:39.438Z,70
2019-03-01T12:18:29.213Z,70
2019-03-01T12:19:21.082Z,70
2019-03-01T12:20:09.615Z,70.1
2019-03-01T12:20:59.398Z,70.1
2019-03-01T12:21:49.723Z,70.1
2019-03-01T12:22:39.520Z,70.1
2019-03-01T12:23:29.845Z,70.1
2019-03-01T12:24:19.906Z,70.1
2019-03-01T12:25:11.922Z,70.1
2019-03-01T12:26:00.072Z,70.1
2019-03-01T12:26:49.806Z,70.1
2019-03-01T12:27:39.902Z,70.1
2019-03-01T12:28:29.927Z,70.1
2019-03-01T12:29:19.698Z,70.1
2019-03-01T12:30:10.302Z,70.1
2019-03-01T12:31:02.013Z,70.1
2019-03-01T12:31:50.425Z,70.1
2019-03-01T12:32:40.223Z,70.1
2019-03-01T12:33:30.274Z,70.1
2019-03-01T12:34:20.327Z,70.1
2019-03-01T12:35:10.654Z,70.1
2019-03-01T12:36:00.439Z,70
2019-03-01T12:36:50.769Z,70
2019-03-01T12:37:40.284Z,70
2019-03-01T12:38:30.883Z,70
2019-03-01T12:39:21.004Z,70
2019-03-01T12:40:10.744Z,70
2019-03-01T12:41:00.790Z,70
2019-03-01T12:41:51.116Z,69.9
2019-03-01T12:42:41.181Z,69.9
2019-03-01T12:43:30.954Z,69.9
2019-03-01T12:44:21.296Z,69.9
2019-03-01T12:45:10.806Z,69.9
2019-03-01T12:46:01.409Z,69.9
2019-03-01T12:46:51.472Z,69.9
2019-03-01T12:47:40.983Z,69.9
2019-03-01T12:48:31.311Z,69.9
2019-03-01T12:49:21.647Z,69.9
2019-03-01T12:50:11.443Z,69.9
2019-03-01T12:51:01.754Z,69.9
2019-03-01T12:51:51.001Z,69.8
2019-03-01T12:52:41.873Z,69.8
2019-03-01T12:53:31.938Z,69.8
2019-03-01T12:54:21.722Z,69.8
2019-03-01T12:55:13.853Z,69.5
2019-03-01T12:56:01.836Z,69.3
2019-03-01T12:56:51.898Z,69.1
2019-03-01T12:57:41.955Z,69.1
2019-03-01T12:58:32.305Z,69.1
2019-03-01T12:59:22.063Z,69.1
2019-03-01T13:00:12.115Z,69.1
2019-03-01T13:01:02.456Z,69
2019-03-01T13:01:52.516Z,69
2019-03-01T13:02:42.565Z,68.9
2019-03-01T13:03:32.644Z,68.8
2019-03-01T13:04:22.694Z,68.8
2019-03-01T13:05:12.739Z,68.8
2019-03-01T13:06:05.749Z,68.7
2019-03-01T13:06:52.861Z,68.6
2019-03-01T13:07:43.352Z,68.6
2019-03-01T13:08:32.984Z,68.6
2019-03-01T13:09:28.376Z,68.6
2019-03-01T13:10:12.840Z,68.6
2019-03-01T13:11:03.162Z,68.5
2019-03-01T13:11:53.334Z,68.4
2019-03-01T13:12:43.278Z,68.4
2019-03-01T13:13:39.906Z,68.4
2019-03-01T13:14:23.146Z,68.4
2019-03-01T13:15:15.599Z,68.3
2019-03-01T13:16:03.512Z,68.3
2019-03-01T13:16:53.593Z,68.3
2019-03-01T13:17:43.353Z,68.2
2019-03-01T13:18:33.134Z,68.2
2019-03-01T13:19:27.665Z,68.1
2019-03-01T13:20:13.254Z,68
2019-03-01T13:21:03.586Z,68
2019-03-01T13:21:53.640Z,67.9
2019-03-01T13:22:43.971Z,67.9
2019-03-01T13:23:34.025Z,67.8
2019-03-01T13:24:23.288Z,67.8
2019-03-01T13:25:16.274Z,67.7
2019-03-01T13:26:08.028Z,67.6
2019-03-01T13:26:54.000Z,66.6
2019-03-01T13:27:44.318Z,63.8
2019-03-01T13:28:34.383Z,62.3
2019-03-01T13:29:24.801Z,62.2